Time;durP1;ratioP1;P1;durP2;ratioP2;P2;SDS_P1;SDS_P2;PMS_P1;PMS_P2;Temp;Humidity;BMP_temperature;BMP_pressure;BME280_temperature;BME280_humidity;BME280_pressure;Samples;Min_cycle;Max_cycle;Signal;HPM_P1;HPM_P2
2022/04/09 00:02:12;;;;;;;16.50;1.97;;;4.80;98.20;;;;;;5060668;28;20040;-81
2022/04/09 00:04:38;;;;;;;18.23;2.57;;;4.90;98.20;;;;;;5060822;28;20016;-77
2022/04/09 00:07:03;;;;;;;18.13;2.23;;;4.80;98.10;;;;;;5077308;28;20032;-78
2022/04/09 00:09:29;;;;;;;21.07;2.53;;;4.90;98.20;;;;;;5060876;28;20048;-78
2022/04/09 00:11:55;;;;;;;14.63;2.17;;;4.80;98.10;;;;;;5061362;28;20054;-78
2022/04/09 00:14:20;;;;;;;15.60;1.63;;;4.80;98.20;;;;;;5077197;28;20028;-77
2022/04/09 00:16:49;;;;;;;12.57;2.30;;;4.80;98.10;;;;;;5077775;28;20107;-79
2022/04/09 00:19:14;;;;;;;14.93;1.80;;;4.80;98.10;;;;;;5077624;28;20020;-77
2022/04/09 00:21:40;;;;;;;13.67;1.73;;;4.80;98.30;;;;;;5060023;28;20069;-80
2022/04/09 00:24:06;;;;;;;12.17;2.33;;;4.70;98.30;;;;;;5060328;28;20027;-82
2022/04/09 00:26:32;;;;;;;13.13;2.27;;;4.70;98.30;;;;;;5077093;28;20103;-81
2022/04/09 00:28:58;;;;;;;10.13;1.77;;;4.70;98.30;;;;;;5067363;28;20452;-83
2022/04/09 00:31:23;;;;;;;15.43;2.53;;;4.70;98.50;;;;;;5041294;28;20487;-77
2022/04/09 00:33:49;;;;;;;10.37;1.70;;;4.70;98.50;;;;;;5041418;28;20029;-77
2022/04/09 00:36:14;;;;;;;19.33;1.80;;;4.70;98.50;;;;;;5041013;28;20056;-79
2022/04/09 00:38:40;;;;;;;11.33;1.60;;;4.70;98.60;;;;;;5040461;28;20119;-80
2022/04/09 00:41:09;;;;;;;9.70;1.70;;;4.70;98.50;;;;;;5056967;28;20024;-78
2022/04/09 00:43:39;;;;;;;12.57;2.33;;;4.70;98.60;;;;;;5057775;28;20101;-76
2022/04/09 00:46:05;;;;;;;14.47;2.47;;;4.70;98.60;;;;;;5075454;28;20020;-79
2022/04/09 00:48:31;;;;;;;10.53;1.50;;;4.70;98.60;;;;;;5074716;28;20112;-79
2022/04/09 00:50:57;;;;;;;14.40;2.00;;;4.60;98.50;;;;;;5057210;28;20041;-79
2022/04/09 00:53:24;;;;;;;18.50;2.10;;;4.60;98.50;;;;;;5056839;28;20477;-80
2022/04/09 00:58:38;;;;;;;13.87;1.87;;;4.60;98.60;;;;;;5075015;28;20047;-79
2022/04/09 01:01:04;;;;;;;14.50;3.17;;;4.40;98.50;;;;;;5040517;28;20617;-79
2022/04/09 01:03:34;;;;;;;15.83;2.37;;;4.60;98.70;;;;;;5057465;28;20071;-78
2022/04/09 01:06:00;;;;;;;17.43;2.33;;;4.60;98.80;;;;;;5057798;28;20141;-81
2022/04/09 01:08:26;;;;;;;12.70;2.03;;;4.50;98.90;;;;;;5057504;28;20059;-80
2022/04/09 01:10:51;;;;;;;19.93;2.80;;;4.50;98.80;;;;;;5040154;28;20028;-77
2022/04/09 01:13:19;;;;;;;19.40;2.03;;;4.60;99.00;;;;;;5040643;28;20029;-77
2022/04/09 01:15:44;;;;;;;17.53;2.37;;;4.60;99.00;;;;;;5041361;28;20033;-80
2022/04/09 01:18:10;;;;;;;10.63;2.00;;;4.50;99.10;;;;;;5056423;28;20418;-77
2022/04/09 01:20:36;;;;;;;15.77;2.07;;;4.50;99.00;;;;;;5057329;28;20036;-81
2022/04/09 01:23:02;;;;;;;11.17;2.30;;;4.50;99.00;;;;;;5056472;28;20078;-77
2022/04/09 01:25:28;;;;;;;17.27;2.43;;;4.40;99.00;;;;;;5040156;28;20389;-80
2022/04/09 01:27:53;;;;;;;12.80;2.00;;;4.40;99.00;;;;;;5039499;28;20599;-76
2022/04/09 01:30:19;;;;;;;10.47;1.97;;;4.40;99.00;;;;;;5039813;28;20032;-78
2022/04/09 01:32:45;;;;;;;11.17;2.07;;;4.40;99.00;;;;;;5056542;28;20036;-76
2022/04/09 01:35:11;;;;;;;13.33;1.90;;;4.40;99.00;;;;;;5073635;28;20115;-77
2022/04/09 01:37:37;;;;;;;8.60;1.57;;;4.40;99.00;;;;;;5055793;28;20033;-78
2022/04/09 01:40:02;;;;;;;10.47;1.43;;;4.40;99.20;;;;;;5038909;28;20086;-78
2022/04/09 01:42:28;;;;;;;13.90;1.97;;;4.40;99.20;;;;;;5055478;28;20035;-82
2022/04/09 01:44:54;;;;;;;13.23;1.90;;;4.40;99.30;;;;;;5056818;28;20087;-82
2022/04/09 01:47:20;;;;;;;12.03;1.83;;;4.40;99.40;;;;;;5055749;28;20456;-77
2022/04/09 01:49:46;;;;;;;15.13;1.60;;;4.40;99.60;;;;;;5055707;28;20021;-78
2022/04/09 01:52:12;;;;;;;12.80;1.60;;;4.40;99.70;;;;;;5039686;28;20025;-78
2022/04/09 01:54:38;;;;;;;12.27;1.43;;;4.40;99.60;;;;;;5056164;28;20032;-81
2022/04/09 01:57:04;;;;;;;12.10;1.20;;;4.50;99.70;;;;;;5039148;28;20459;-79
2022/04/09 01:59:30;;;;;;;12.83;1.93;;;4.50;99.60;;;;;;5039746;28;20029;-78
2022/04/09 02:01:55;;;;;;;11.83;1.33;;;4.50;99.60;;;;;;5074053;28;20133;-80
2022/04/09 02:04:21;;;;;;;10.47;1.70;;;4.50;99.50;;;;;;5039657;28;20075;-79
2022/04/09 02:06:48;;;;;;;8.37;1.80;;;4.50;99.50;;;;;;5055888;28;20023;-78
2022/04/09 02:09:14;;;;;;;11.77;1.60;;;4.60;99.60;;;;;;5039340;28;20111;-76
2022/04/09 02:11:41;;;;;;;16.47;1.77;;;4.50;99.60;;;;;;5039330;28;20118;-77
2022/04/09 02:14:09;;;;;;;16.87;2.30;;;4.60;99.60;;;;;;5055760;28;20098;-79
2022/04/09 02:16:35;;;;;;;8.67;1.50;;;4.60;99.60;;;;;;5055194;28;20070;-81
2022/04/09 02:19:02;;;;;;;12.87;2.60;;;4.70;99.60;;;;;;5055349;28;20052;-81
2022/04/09 02:21:28;;;;;;;8.80;1.63;;;4.70;99.60;;;;;;5038421;28;20028;-77
2022/04/09 02:23:53;;;;;;;11.50;1.67;;;4.70;99.60;;;;;;5073251;28;20025;-79
2022/04/09 02:26:19;;;;;;;8.37;1.00;;;4.80;99.60;;;;;;5038442;28;20064;-81
2022/04/09 02:28:47;;;;;;;14.40;1.70;;;4.80;99.40;;;;;;5054825;28;20020;-78
2022/04/09 02:31:17;;;;;;;5.70;1.03;;;4.90;99.30;;;;;;5038656;28;20021;-83
2022/04/09 02:33:43;;;;;;;11.47;1.20;;;4.90;99.10;;;;;;5055852;28;20028;-82
2022/04/09 02:36:12;;;;;;;7.63;1.13;;;4.90;99.00;;;;;;5073846;28;20032;-80
2022/04/09 02:38:38;;;;;;;6.97;0.93;;;4.90;98.70;;;;;;5038994;28;20029;-81
2022/04/09 02:41:04;;;;;;;7.10;0.87;;;4.90;98.50;;;;;;5054766;28;20031;-82
2022/04/09 02:43:30;;;;;;;6.13;0.63;;;4.90;98.30;;;;;;5038823;28;20017;-79
2022/04/09 02:45:56;;;;;;;9.77;0.93;;;4.90;98.40;;;;;;5055603;28;20112;-80
2022/04/09 02:48:21;;;;;;;11.50;1.00;;;4.90;98.40;;;;;;5042403;28;20048;-79
2022/04/09 02:50:48;;;;;;;7.40;1.07;;;4.90;98.50;;;;;;5059054;28;20542;-82
2022/04/09 02:53:14;;;;;;;7.97;1.20;;;4.90;98.60;;;;;;5058664;28;20032;-82
2022/04/09 02:55:40;;;;;;;9.30;1.23;;;4.90;98.70;;;;;;5058651;28;20123;-79
2022/04/09 02:58:05;;;;;;;14.03;1.53;;;4.80;98.90;;;;;;5058827;28;20033;-77
2022/04/09 03:00:31;;;;;;;13.37;1.40;;;4.90;99.00;;;;;;5042115;28;20025;-77
2022/04/09 03:02:57;;;;;;;8.87;1.20;;;4.80;99.30;;;;;;5058071;28;20453;-78
2022/04/09 03:05:22;;;;;;;11.53;1.47;;;4.80;99.40;;;;;;5059684;28;20024;-78
2022/04/09 03:07:48;;;;;;;8.27;0.90;;;4.70;99.50;;;;;;5042267;28;20021;-78
2022/04/09 03:10:14;;;;;;;8.87;1.10;;;4.80;99.50;;;;;;5059190;28;20036;-77
2022/04/09 03:12:44;;;;;;;7.80;1.90;;;4.70;99.70;;;;;;5042550;28;20028;-77
2022/04/09 03:15:10;;;;;;;10.63;1.53;;;4.70;99.80;;;;;;5059273;28;20021;-80
2022/04/09 03:17:36;;;;;;;15.10;2.30;;;4.80;99.90;;;;;;5058760;28;20033;-82
2022/04/09 03:20:02;;;;;;;10.93;1.37;;;4.60;99.80;;;;;;5042139;28;20366;-81
2022/04/09 03:22:28;;;;;;;6.63;1.00;;;4.60;99.90;;;;;;5059045;28;20024;-80
2022/04/09 03:24:58;;;;;;;14.07;1.17;;;4.60;99.90;;;;;;5041604;28;20107;-78
2022/04/09 03:27:25;;;;;;;6.37;1.00;;;4.50;99.90;;;;;;5041390;28;20078;-78
2022/04/09 03:29:51;;;;;;;7.93;1.20;;;4.50;99.90;;;;;;5058754;28;20020;-78
2022/04/09 03:32:17;;;;;;;11.47;1.27;;;4.60;99.90;;;;;;5041536;28;20131;-77
2022/04/09 03:34:43;;;;;;;14.07;1.73;;;4.70;99.90;;;;;;5041908;28;20021;-80
2022/04/09 03:37:08;;;;;;;11.13;1.60;;;4.60;99.90;;;;;;5057380;28;20389;-77
2022/04/09 03:39:35;;;;;;;8.90;1.60;;;4.60;99.90;;;;;;5040876;28;20020;-77
2022/04/09 03:42:01;;;;;;;8.77;0.97;;;4.60;99.90;;;;;;5075673;28;20036;-79
2022/04/09 03:44:27;;;;;;;9.23;1.23;;;4.60;99.90;;;;;;5041774;28;20465;-78
2022/04/09 03:46:59;;;;;;;9.53;1.23;;;4.60;99.90;;;;;;5040653;28;20488;-78
2022/04/09 03:49:25;;;;;;;8.43;1.30;;;4.60;99.90;;;;;;5041133;28;20069;-78
2022/04/09 03:51:51;;;;;;;7.73;1.13;;;4.60;99.90;;;;;;5057405;28;20028;-79
2022/04/09 03:54:17;;;;;;;6.07;0.70;;;4.60;99.90;;;;;;5057113;28;20024;-77
2022/04/09 03:56:43;;;;;;;8.93;1.30;;;4.60;99.90;;;;;;5057130;28;20113;-78
2022/04/09 03:59:09;;;;;;;8.43;1.37;;;4.50;99.90;;;;;;5056778;28;20025;-79
2022/04/09 04:01:35;;;;;;;8.17;1.00;;;4.50;99.90;;;;;;5057292;28;20382;-78
2022/04/09 04:04:01;;;;;;;9.07;1.83;;;4.50;99.90;;;;;;5057681;28;20392;-78
2022/04/09 04:06:27;;;;;;;12.00;1.47;;;4.50;99.90;;;;;;5057447;28;20021;-78
2022/04/09 04:08:55;;;;;;;12.70;2.20;;;4.50;99.90;;;;;;5075094;28;20078;-78
2022/04/09 04:11:22;;;;;;;9.77;1.67;;;4.50;99.90;;;;;;5056955;28;20105;-80
2022/04/09 04:13:48;;;;;;;8.20;1.27;;;4.50;99.90;;;;;;5056911;28;20126;-79
2022/04/09 04:16:15;;;;;;;9.07;1.07;;;4.60;99.90;;;;;;5040850;28;20093;-80
2022/04/09 04:18:40;;;;;;;13.77;1.77;;;4.60;99.90;;;;;;5041121;28;20052;-84
2022/04/09 04:21:07;;;;;;;11.57;2.13;;;4.60;99.90;;;;;;5057388;28;20064;-85
2022/04/09 04:23:32;;;;;;;9.77;1.20;;;4.60;99.90;;;;;;5041200;28;20166;-79
2022/04/09 04:25:58;;;;;;;11.27;1.20;;;4.60;99.90;;;;;;5057438;28;20068;-80
2022/04/09 04:28:24;;;;;;;14.00;1.50;;;4.60;99.90;;;;;;5040751;28;20074;-79
2022/04/09 04:30:49;;;;;;;11.40;2.63;;;4.70;99.90;;;;;;5057632;28;20552;-80
2022/04/09 04:33:15;;;;;;;9.90;1.30;;;4.70;99.90;;;;;;5041778;28;20436;-80
2022/04/09 04:35:40;;;;;;;10.10;1.30;;;4.70;99.90;;;;;;5039921;28;20550;-81
2022/04/09 04:38:06;;;;;;;16.67;2.13;;;4.80;99.90;;;;;;5040010;28;20032;-80
2022/04/09 04:40:31;;;;;;;6.83;1.13;;;4.80;99.90;;;;;;5039606;28;20052;-85
2022/04/09 04:42:57;;;;;;;6.97;1.07;;;4.80;99.80;;;;;;5039584;28;20532;-80
2022/04/09 04:45:23;;;;;;;12.50;1.43;;;4.90;99.60;;;;;;5045525;28;20475;-81
2022/04/09 04:47:49;;;;;;;10.50;1.00;;;4.90;99.50;;;;;;5072667;28;20029;-82
2022/04/09 04:50:16;;;;;;;9.33;1.10;;;5.00;99.10;;;;;;5089646;28;20032;-82
2022/04/09 04:52:42;;;;;;;8.17;0.90;;;5.00;98.70;;;;;;5056457;28;20033;-84
2022/04/09 04:55:09;;;;;;;10.20;1.67;;;5.00;98.50;;;;;;5056429;28;20477;-85
2022/04/09 04:57:52;;;;;;;4.77;0.70;;;5.00;98.30;;;;;;5056838;28;20033;-78
2022/04/09 05:00:21;;;;;;;7.77;1.00;;;5.00;98.30;;;;;;5074117;28;20028;-80
2022/04/09 05:02:47;;;;;;;8.43;0.97;;;5.00;98.40;;;;;;5055467;28;20052;-78
2022/04/09 05:05:12;;;;;;;10.30;1.13;;;5.00;98.50;;;;;;5056013;28;20029;-76
2022/04/09 05:07:39;;;;;;;12.47;1.33;;;5.10;98.70;;;;;;5072842;28;20037;-81
2022/04/09 05:10:13;;;;;;;8.23;0.93;;;5.10;98.70;;;;;;5056637;28;20094;-80
2022/04/09 05:12:39;;;;;;;5.90;0.70;;;5.00;98.70;;;;;;5073941;28;20428;-78
2022/04/09 05:15:07;;;;;;;9.40;1.00;;;5.10;98.80;;;;;;5072278;28;20036;-77
2022/04/09 05:17:33;;;;;;;7.07;0.80;;;5.10;98.70;;;;;;5056568;28;20021;-79
2022/04/09 05:19:59;;;;;;;9.63;0.83;;;5.00;98.90;;;;;;5056317;28;20028;-78
2022/04/09 05:22:27;;;;;;;11.40;1.23;;;5.00;98.90;;;;;;5056142;28;20048;-78
2022/04/09 05:24:55;;;;;;;8.27;0.93;;;5.00;98.70;;;;;;5089271;28;20025;-77
2022/04/09 05:27:21;;;;;;;10.60;1.27;;;5.00;98.80;;;;;;5072944;28;20052;-82
2022/04/09 05:29:47;;;;;;;12.63;1.37;;;5.00;98.80;;;;;;5055826;28;20549;-82
2022/04/09 05:32:13;;;;;;;10.03;1.30;;;5.00;98.80;;;;;;5056476;28;20024;-78
2022/04/09 05:34:39;;;;;;;9.83;1.30;;;5.00;98.90;;;;;;5056222;28;20476;-76
2022/04/09 05:37:04;;;;;;;13.97;1.37;;;5.00;98.90;;;;;;5055220;28;20048;-77
2022/04/09 05:39:30;;;;;;;11.03;1.40;;;4.90;99.00;;;;;;5055703;28;20455;-77
2022/04/09 05:41:56;;;;;;;11.90;2.20;;;4.90;99.20;;;;;;5089437;28;20078;-77
2022/04/09 05:44:21;;;;;;;8.43;1.97;;;4.80;99.30;;;;;;5055793;28;20017;-79
2022/04/09 05:46:47;;;;;;;14.13;1.30;;;4.90;99.50;;;;;;5074283;28;20053;-79
2022/04/09 05:49:13;;;;;;;8.57;1.50;;;4.90;99.60;;;;;;5073936;28;20385;-80
2022/04/09 05:51:38;;;;;;;14.07;2.77;;;5.00;99.80;;;;;;5073434;28;20040;-81
2022/04/09 05:54:04;;;;;;;17.57;2.10;;;5.00;99.80;;;;;;5073090;28;20031;-78
2022/04/09 05:56:30;;;;;;;15.33;1.90;;;5.00;99.70;;;;;;5073979;28;20028;-78
2022/04/09 05:58:56;;;;;;;8.33;1.60;;;5.00;99.70;;;;;;5055243;28;20477;-78
2022/04/09 06:01:22;;;;;;;13.37;1.63;;;5.00;99.70;;;;;;5055980;28;20078;-79
2022/04/09 06:03:48;;;;;;;15.97;1.40;;;5.10;99.60;;;;;;5055074;28;20045;-78
2022/04/09 06:06:13;;;;;;;10.17;1.43;;;5.20;99.40;;;;;;5075451;28;20028;-79
2022/04/09 06:08:41;;;;;;;7.37;1.30;;;5.20;99.20;;;;;;5083934;28;20029;-78
2022/04/09 06:11:08;;;;;;;7.33;1.13;;;5.30;99.20;;;;;;5059002;28;20024;-79
2022/04/09 06:13:34;;;;;;;13.50;2.20;;;5.40;99.20;;;;;;5076486;28;20107;-78
2022/04/09 06:16:00;;;;;;;10.50;1.97;;;5.50;99.10;;;;;;5075776;28;20055;-79
2022/04/09 06:18:26;;;;;;;12.63;1.53;;;5.50;99.10;;;;;;5086796;28;20026;-82
2022/04/09 06:20:52;;;;;;;11.97;1.20;;;5.60;99.50;;;;;;5110356;28;20024;-81
2022/04/09 06:23:17;;;;;;;14.03;1.43;;;5.60;99.60;;;;;;5066130;28;20020;-82
2022/04/09 06:25:46;;;;;;;14.00;1.63;;;5.60;99.80;;;;;;5098943;28;20020;-81
2022/04/09 06:28:13;;;;;;;8.20;1.23;;;5.40;99.80;;;;;;5100098;28;20149;-83
2022/04/09 06:30:39;;;;;;;11.37;1.37;;;5.40;99.80;;;;;;5099459;28;20042;-78
2022/04/09 06:33:05;;;;;;;8.20;1.13;;;5.40;99.80;;;;;;5081915;28;20502;-81
2022/04/09 06:35:31;;;;;;;6.60;0.90;;;5.40;99.90;;;;;;5115873;28;20035;-77
2022/04/09 06:37:56;;;;;;;7.63;0.97;;;5.30;99.90;;;;;;5065650;28;20034;-78
2022/04/09 06:40:22;;;;;;;12.27;2.70;;;5.30;99.90;;;;;;5081443;28;20461;-79
2022/04/09 06:42:48;;;;;;;11.23;1.47;;;5.40;99.90;;;;;;5042640;28;20020;-80
2022/04/09 06:45:15;;;;;;;6.90;0.83;;;5.40;99.90;;;;;;5075248;28;20119;-81
2022/04/09 06:47:41;;;;;;;7.70;1.40;;;5.50;99.90;;;;;;5093148;28;20400;-78
2022/04/09 06:50:12;;;;;;;8.27;1.00;;;5.60;99.90;;;;;;5060655;28;20094;-82
2022/04/09 06:52:38;;;;;;;11.60;1.20;;;5.70;99.90;;;;;;5091648;28;20024;-78
2022/04/09 06:55:05;;;;;;;14.43;1.90;;;5.80;99.90;;;;;;5060643;28;20021;-78
2022/04/09 06:57:32;;;;;;;12.60;1.60;;;5.80;99.90;;;;;;5092280;28;20028;-78
2022/04/09 06:59:59;;;;;;;11.07;1.73;;;5.90;99.90;;;;;;5064207;28;20081;-78
2022/04/09 07:02:25;;;;;;;14.17;2.40;;;5.90;99.90;;;;;;5108281;28;20078;-83
2022/04/09 07:04:53;;;;;;;16.77;2.40;;;6.00;99.70;;;;;;5108893;28;20052;-77
2022/04/09 07:07:23;;;;;;;15.63;2.03;;;6.00;99.60;;;;;;5066380;28;20502;-78
2022/04/09 07:09:49;;;;;;;12.87;2.10;;;6.00;99.70;;;;;;5081975;28;20020;-78
2022/04/09 07:12:15;;;;;;;11.37;1.60;;;6.00;99.70;;;;;;5070044;28;20035;-81
2022/04/09 07:14:41;;;;;;;14.60;1.73;;;6.00;99.60;;;;;;5080966;28;20077;-78
2022/04/09 07:17:07;;;;;;;15.20;1.83;;;5.90;99.20;;;;;;5061192;28;20024;-82
2022/04/09 07:19:33;;;;;;;15.27;2.03;;;6.00;99.20;;;;;;5061348;28;20020;-83
2022/04/09 07:21:59;;;;;;;16.03;2.00;;;6.00;99.40;;;;;;5061068;28;20032;-80
2022/04/09 07:24:24;;;;;;;13.07;2.13;;;6.00;99.30;;;;;;5077810;28;20024;-81
2022/04/09 07:26:50;;;;;;;9.40;1.80;;;6.10;99.20;;;;;;5096722;28;20477;-83
2022/04/09 07:29:16;;;;;;;17.47;1.63;;;6.20;99.30;;;;;;5078225;28;20020;-84
2022/04/09 07:31:42;;;;;;;11.37;1.87;;;6.30;99.30;;;;;;5113572;28;20085;-84
2022/04/09 07:34:08;;;;;;;15.40;2.63;;;6.40;99.50;;;;;;5081107;28;20032;-79
2022/04/09 07:36:33;;;;;;;10.80;1.63;;;6.50;99.40;;;;;;5078518;28;20028;-80
2022/04/09 07:38:59;;;;;;;12.10;2.03;;;6.70;99.30;;;;;;5082951;28;20490;-81
2022/04/09 07:41:25;;;;;;;12.60;1.97;;;6.70;98.80;;;;;;5060645;28;20042;-80
2022/04/09 07:43:50;;;;;;;6.90;0.70;;;6.70;98.60;;;;;;5077225;28;20039;-85
2022/04/09 07:46:16;;;;;;;5.87;0.80;;;6.50;97.90;;;;;;5077425;28;20418;-80
2022/04/09 07:48:42;;;;;;;7.53;0.83;;;6.40;98.30;;;;;;5060492;28;20028;-81
2022/04/09 07:51:10;;;;;;;6.17;1.23;;;6.20;99.00;;;;;;5077032;28;20035;-81
2022/04/09 07:53:35;;;;;;;10.60;1.63;;;6.20;99.40;;;;;;5060662;28;20110;-80
2022/04/09 07:56:01;;;;;;;6.50;1.10;;;6.10;99.90;;;;;;5072969;28;20097;-79
2022/04/09 07:58:27;;;;;;;11.17;1.07;;;6.10;99.90;;;;;;5054569;28;20037;-81
2022/04/09 08:00:52;;;;;;;3.20;0.50;;;6.00;99.90;;;;;;5077001;28;20037;-80
2022/04/09 08:03:18;;;;;;;3.33;0.60;;;6.10;99.90;;;;;;5063497;28;20054;-83
2022/04/09 08:05:44;;;;;;;8.13;1.00;;;6.10;99.90;;;;;;5063398;28;20023;-83
2022/04/09 08:08:09;;;;;;;3.20;0.40;;;6.10;99.90;;;;;;5063488;28;20028;-81
2022/04/09 08:10:37;;;;;;;3.07;0.70;;;6.20;99.90;;;;;;5080158;28;20037;-79
2022/04/09 08:13:03;;;;;;;4.10;0.60;;;6.40;99.90;;;;;;5096781;28;20027;-79
2022/04/09 08:15:28;;;;;;;8.80;1.23;;;6.30;99.90;;;;;;5063457;28;20032;-79
2022/04/09 08:17:56;;;;;;;11.70;0.87;;;6.40;99.90;;;;;;5080054;28;20118;-81
2022/04/09 08:20:22;;;;;;;8.60;1.00;;;6.50;99.80;;;;;;5080367;28;20554;-78
2022/04/09 08:22:49;;;;;;;5.73;0.93;;;6.60;99.90;;;;;;5096749;28;20114;-84
2022/04/09 08:25:14;;;;;;;8.63;1.23;;;6.80;99.90;;;;;;5096929;28;20019;-79
2022/04/09 08:27:42;;;;;;;6.50;0.70;;;7.00;99.90;;;;;;5114952;28;20117;-81
2022/04/09 08:30:08;;;;;;;9.23;0.60;;;7.10;98.40;;;;;;5068031;28;20035;-79
2022/04/09 08:32:34;;;;;;;11.37;1.03;;;7.30;95.80;;;;;;5060046;28;20039;-81
2022/04/09 08:35:00;;;;;;;3.23;0.57;;;7.30;95.50;;;;;;5059308;28;20036;-78
2022/04/09 08:37:26;;;;;;;8.37;0.70;;;7.40;95.60;;;;;;5076765;28;20059;-83
2022/04/09 08:39:54;;;;;;;5.57;0.90;;;7.60;95.70;;;;;;5071174;28;20040;-81
2022/04/09 08:42:21;;;;;;;9.47;1.30;;;7.50;95.60;;;;;;5082995;28;20024;-83
2022/04/09 08:44:48;;;;;;;6.20;0.80;;;7.60;96.20;;;;;;5072048;28;20021;-80
2022/04/09 08:47:15;;;;;;;8.77;1.43;;;7.70;96.90;;;;;;5056152;28;20137;-79
2022/04/09 08:49:45;;;;;;;10.00;1.60;;;7.70;96.60;;;;;;5039463;28;20461;-83
2022/04/09 08:52:11;;;;;;;5.23;1.33;;;7.80;96.40;;;;;;5055846;28;20029;-78
2022/04/09 08:54:37;;;;;;;7.07;0.87;;;7.70;96.30;;;;;;5039287;28;20115;-85
2022/04/09 08:57:04;;;;;;;11.43;1.57;;;7.70;96.60;;;;;;5085226;28;20036;-78
2022/04/09 08:59:30;;;;;;;10.33;2.00;;;7.70;96.40;;;;;;5079350;28;20395;-77
2022/04/09 09:01:56;;;;;;;12.87;1.80;;;7.70;96.60;;;;;;5078910;28;20068;-76
2022/04/09 09:04:21;;;;;;;15.43;1.93;;;7.70;96.50;;;;;;5093755;28;20036;-81
2022/04/09 09:06:47;;;;;;;14.50;1.97;;;7.70;96.80;;;;;;5071063;28;20404;-78
2022/04/09 09:09:31;;;;;;;11.93;1.87;;;7.60;97.10;;;;;;5055447;28;20476;-79
2022/04/09 09:11:57;;;;;;;12.18;1.45;;;7.70;97.30;;;;;;5056249;28;20062;-77
2022/04/09 09:14:34;;;;;;;6.30;0.73;;;7.80;97.00;;;;;;5056153;28;20025;-83
2022/04/09 09:17:02;;;;;;;7.40;1.00;;;8.10;96.90;;;;;;5055997;28;20021;-83
2022/04/09 09:19:42;;;;;;;7.67;0.93;;;8.20;94.00;;;;;;5073593;28;20473;-80
2022/04/09 09:22:08;;;;;;;9.77;1.70;;;8.20;94.40;;;;;;5073313;28;20425;-79
2022/04/09 09:24:34;;;;;;;9.10;1.70;;;8.30;94.30;;;;;;5072242;28;20024;-80
2022/04/09 09:27:01;;;;;;;8.43;1.83;;;8.00;94.10;;;;;;5071943;28;20384;-80
2022/04/09 09:29:29;;;;;;;11.43;2.00;;;7.90;94.30;;;;;;5055691;28;20027;-80
2022/04/09 09:31:56;;;;;;;12.50;1.90;;;7.80;94.40;;;;;;5072082;28;20025;-80
2022/04/09 09:34:22;;;;;;;11.43;1.70;;;7.70;94.60;;;;;;5055324;28;20021;-79
2022/04/09 09:36:49;;;;;;;6.97;1.20;;;7.60;94.80;;;;;;5073245;28;20028;-81
2022/04/09 09:39:20;;;;;;;5.57;1.30;;;7.50;94.70;;;;;;5088881;28;20025;-82
2022/04/09 09:41:50;;;;;;;3.97;0.80;;;7.50;93.90;;;;;;5073202;28;20029;-80
2022/04/09 09:44:16;;;;;;;6.73;0.90;;;7.50;93.20;;;;;;5073412;28;20021;-79
2022/04/09 09:46:43;;;;;;;6.30;1.10;;;7.50;92.60;;;;;;5055505;28;20540;-82
2022/04/09 09:49:09;;;;;;;4.20;0.60;;;7.60;92.60;;;;;;5088548;28;20087;-81
2022/04/09 09:51:34;;;;;;;7.37;0.90;;;7.60;92.70;;;;;;5073159;28;20052;-79
2022/04/09 09:54:11;;;;;;;8.23;0.60;;;7.70;93.40;;;;;;5071686;28;20024;-82
2022/04/09 09:56:42;;;;;;;6.77;0.93;;;7.80;93.90;;;;;;5080086;28;20044;-81
2022/04/09 09:59:13;;;;;;;5.27;0.80;;;7.90;93.60;;;;;;5088456;28;20024;-79
2022/04/09 10:01:44;;;;;;;7.47;0.97;;;7.90;93.30;;;;;;5082561;28;21383;-80
2022/04/09 10:04:11;;;;;;;7.27;0.70;;;7.80;93.50;;;;;;5079157;28;20047;-81
2022/04/09 10:06:38;;;;;;;2.93;0.60;;;7.60;94.20;;;;;;5050276;28;20021;-84
2022/04/09 10:09:05;;;;;;;3.30;0.30;;;7.30;94.10;;;;;;5066004;28;20020;-83
2022/04/09 10:11:42;;;;;;;2.37;0.50;;;7.00;94.00;;;;;;5076627;28;20123;-83
2022/04/09 10:14:12;;;;;;;2.07;0.77;;;6.80;94.00;;;;;;5062249;28;20024;-80
2022/04/09 10:16:40;;;;;;;2.37;0.40;;;6.60;94.60;;;;;;5076317;28;20073;-80
2022/04/09 10:19:06;;;;;;;2.23;0.30;;;6.50;94.80;;;;;;5078953;28;20031;-81
2022/04/09 10:21:39;;;;;;;7.07;0.40;;;6.40;94.90;;;;;;5078933;28;20024;-81
2022/04/09 10:24:13;;;;;;;2.38;0.50;;;6.30;94.90;;;;;;5078820;28;20039;-80
2022/04/09 10:26:39;;;;;;;2.60;0.50;;;6.40;95.40;;;;;;5078952;28;20470;-80
2022/04/09 10:29:08;;;;;;;1.47;0.40;;;6.40;95.70;;;;;;5078689;28;20024;-80
2022/04/09 10:31:36;;;;;;;3.17;0.50;;;6.50;96.00;;;;;;5062440;28;20480;-83
2022/04/09 10:34:04;;;;;;;5.90;0.73;;;6.80;96.40;;;;;;5078893;28;20373;-81
2022/04/09 10:36:44;;;;;;;3.90;0.50;;;6.80;96.40;;;;;;5078603;28;20020;-82
2022/04/09 10:39:33;;;;;;;3.33;0.50;;;6.80;96.30;;;;;;5096829;28;20024;-81
2022/04/09 10:41:59;;;;;;;3.00;0.40;;;6.90;96.30;;;;;;5096876;28;20020;-82
2022/04/09 10:44:43;;;;;;;1.80;0.40;;;6.90;95.60;;;;;;5062015;28;20084;-82
2022/04/09 10:47:11;;;;;;;1.35;0.30;;;6.80;95.10;;;;;;5096786;28;20020;-81
2022/04/09 10:49:37;;;;;;;1.40;0.40;;;6.80;94.90;;;;;;5061822;28;20028;-81
2022/04/09 10:52:17;;;;;;;1.57;0.40;;;6.70;95.10;;;;;;5096815;28;20041;-79
2022/04/09 10:55:10;;;;;;;2.30;0.50;;;6.70;95.50;;;;;;5078752;28;20025;-80
2022/04/09 10:57:44;;;;;;;5.00;0.60;;;6.80;95.90;;;;;;5078128;28;20028;-80
2022/04/09 11:00:26;;;;;;;4.93;0.98;;;7.30;97.70;;;;;;5078218;28;20500;-80
2022/04/09 11:03:28;;;;;;;5.77;0.60;;;8.20;99.00;;;;;;5078242;28;20052;-81
2022/04/09 11:06:34;;;;;;;5.18;0.95;;;9.30;98.90;;;;;;5078064;28;20024;-81
2022/04/09 11:09:02;;;;;;;3.95;0.60;;;10.30;95.00;;;;;;5095950;28;20025;-79
2022/04/09 11:11:28;;;;;;;4.85;0.50;;;11.30;93.00;;;;;;5078030;28;20023;-80
2022/04/09 11:13:54;;;;;;;5.03;0.40;;;12.00;90.10;;;;;;5044787;28;20020;-83
2022/04/09 11:16:20;;;;;;;3.72;0.60;;;12.00;83.00;;;;;;5096170;28;20028;-82
2022/04/09 11:18:47;;;;;;;5.00;0.90;;;11.60;80.80;;;;;;5095915;28;20059;-83
2022/04/09 11:21:12;;;;;;;4.38;0.57;;;11.00;82.10;;;;;;5061197;28;20522;-81
2022/04/09 11:23:38;;;;;;;3.55;0.65;;;10.00;84.30;;;;;;5061081;28;20028;-81
2022/04/09 11:26:04;;;;;;;5.67;0.73;;;9.60;86.50;;;;;;5061123;28;20480;-85
2022/04/09 11:28:38;;;;;;;5.63;0.73;;;8.70;89.20;;;;;;5060933;28;20028;-83
2022/04/09 11:31:05;;;;;;;3.30;0.60;;;8.30;91.10;;;;;;5076887;28;20031;-82
2022/04/09 11:33:31;;;;;;;5.33;0.70;;;7.70;92.30;;;;;;5060081;28;20025;-81
2022/04/09 11:36:00;;;;;;;7.57;0.80;;;7.40;93.50;;;;;;5060569;28;20120;-80
2022/04/09 11:38:26;;;;;;;6.00;0.60;;;7.20;94.50;;;;;;5077867;28;20028;-81
2022/04/09 11:40:54;;;;;;;5.10;1.53;;;7.00;95.40;;;;;;5095429;28;20103;-78
2022/04/09 11:43:21;;;;;;;5.83;0.73;;;7.00;96.20;;;;;;5076586;28;20024;-76
2022/04/09 11:45:47;;;;;;;8.87;1.10;;;7.00;96.90;;;;;;5057175;28;20067;-77
2022/04/09 11:48:18;;;;;;;5.70;1.00;;;6.90;97.20;;;;;;5073081;28;20020;-79
2022/04/09 11:50:45;;;;;;;4.07;0.80;;;7.00;97.60;;;;;;5077020;28;20488;-78
2022/04/09 11:53:20;;;;;;;4.97;0.73;;;7.10;97.70;;;;;;5077315;28;20029;-78
2022/04/09 11:55:47;;;;;;;3.93;0.77;;;7.70;99.00;;;;;;5077245;28;20028;-78
2022/04/09 11:58:19;;;;;;;4.23;0.90;;;8.60;99.90;;;;;;5060514;28;20441;-80
2022/04/09 12:00:46;;;;;;;4.78;0.73;;;9.60;99.90;;;;;;5094992;28;20020;-82
2022/04/09 12:03:12;;;;;;;3.53;0.60;;;10.50;97.30;;;;;;5076588;28;20514;-81
2022/04/09 12:05:46;;;;;;;6.13;0.65;;;11.30;94.00;;;;;;5076504;28;20020;-79
2022/04/09 12:08:12;;;;;;;;;;;12.10;93.70;;;;;;5061817;28;20073;-80
2022/04/09 12:10:50;;;;;;;5.88;0.80;;;12.90;90.40;;;;;;5083531;28;20322;-81
2022/04/09 12:13:27;;;;;;;2.60;0.70;;;13.20;84.50;;;;;;5056501;28;20021;-79
2022/04/09 12:15:53;;;;;;;3.17;0.70;;;13.20;75.40;;;;;;5074640;28;20025;-80
2022/04/09 12:18:31;;;;;;;2.30;0.38;;;12.80;70.40;;;;;;5039913;28;20032;-82
2022/04/09 12:20:59;;;;;;;3.47;0.50;;;12.30;70.70;;;;;;5040485;28;20033;-81
2022/04/09 12:23:33;;;;;;;3.90;0.43;;;11.70;72.30;;;;;;5052432;28;20024;-79
2022/04/09 12:26:03;;;;;;;4.28;0.50;;;11.50;74.70;;;;;;5060131;28;20028;-77
2022/04/09 12:28:32;;;;;;;2.55;0.32;;;11.70;77.40;;;;;;5060348;28;20039;-78
2022/04/09 12:31:00;;;;;;;2.58;0.63;;;12.30;80.20;;;;;;5076391;28;20435;-82
2022/04/09 12:33:26;;;;;;;3.03;0.45;;;13.00;80.30;;;;;;5076379;28;20028;-77
2022/04/09 12:36:05;;;;;;;3.85;0.63;;;13.60;77.60;;;;;;5076586;28;20388;-77
2022/04/09 12:38:34;;;;;;;1.92;0.40;;;13.80;75.40;;;;;;5059564;28;20047;-80
2022/04/09 12:41:05;;;;;;;4.38;0.47;;;14.40;72.60;;;;;;5076243;28;20026;-79
2022/04/09 12:43:36;;;;;;;4.15;0.73;;;14.50;70.90;;;;;;5060635;28;20028;-77
2022/04/09 12:46:15;;;;;;;5.47;0.50;;;14.20;67.80;;;;;;5076912;28;20032;-77
2022/04/09 12:48:43;;;;;;;6.18;0.85;;;13.60;67.50;;;;;;5076146;28;20019;-79
2022/04/09 12:51:12;;;;;;;3.60;0.60;;;12.80;67.20;;;;;;5094368;28;20434;-81
2022/04/09 12:53:38;;;;;;;8.18;0.90;;;11.90;69.90;;;;;;5076035;28;20028;-77
2022/04/09 12:56:05;;;;;;;4.72;0.70;;;11.40;73.30;;;;;;5076049;28;20048;-75
2022/04/09 12:58:31;;;;;;;7.95;0.85;;;11.00;74.90;;;;;;5059179;28;20032;-81